sensor_id;sensor_type;location;lat;lon;timestamp;temperature;humidity
60909;DHT22;46780;48.128;-1.704;2023-01-15T00:01:18;9.10;99.90
60909;DHT22;46780;48.128;-1.704;2023-01-15T00:03:45;9.10;99.90
60909;DHT22;46780;48.128;-1.704;2023-01-15T00:06:12;9.10;99.90
60909;DHT22;46780;48.128;-1.704;2023-01-15T00:08:38;9.10;99.90
60909;DHT22;46780;48.128;-1.704;2023-01-15T00:11:05;9.10;99.90
60909;DHT22;46780;48.128;-1.704;2023-01-15T00:13:33;9.10;99.90
60909;DHT22;46780;48.128;-1.704;2023-01-15T00:16:02;9.10;99.90
60909;DHT22;46780;48.128;-1.704;2023-01-15T00:18:29;9.10;99.90
60909;DHT22;46780;48.128;-1.704;2023-01-15T00:20:58;9.10;99.90
60909;DHT22;46780;48.128;-1.704;2023-01-15T00:23:24;9.10;99.90
60909;DHT22;46780;48.128;-1.704;2023-01-15T00:25:55;9.00;99.90
60909;DHT22;46780;48.128;-1.704;2023-01-15T00:28:23;9.00;99.90
60909;DHT22;46780;48.128;-1.704;2023-01-15T00:30:51;9.00;99.90
60909;DHT22;46780;48.128;-1.704;2023-01-15T00:33:17;9.10;99.90
60909;DHT22;46780;48.128;-1.704;2023-01-15T00:35:44;9.00;99.90
60909;DHT22;46780;48.128;-1.704;2023-01-15T00:38:10;9.00;99.90
60909;DHT22;46780;48.128;-1.704;2023-01-15T00:40:37;9.00;99.90
60909;DHT22;46780;48.128;-1.704;2023-01-15T00:43:03;9.00;99.90
60909;DHT22;46780;48.128;-1.704;2023-01-15T00:45:29;9.00;99.90
60909;DHT22;46780;48.128;-1.704;2023-01-15T00:47:57;9.00;99.90
60909;DHT22;46780;48.128;-1.704;2023-01-15T00:50:24;9.00;99.90
60909;DHT22;46780;48.128;-1.704;2023-01-15T00:52:50;8.90;99.90
60909;DHT22;46780;48.128;-1.704;2023-01-15T00:55:17;9.00;99.90
60909;DHT22;46780;48.128;-1.704;2023-01-15T00:57:43;8.90;99.90
60909;DHT22;46780;48.128;-1.704;2023-01-15T01:00:11;9.00;99.90
60909;DHT22;46780;48.128;-1.704;2023-01-15T01:02:37;9.00;99.90
60909;DHT22;46780;48.128;-1.704;2023-01-15T01:05:06;9.00;99.90
60909;DHT22;46780;48.128;-1.704;2023-01-15T01:07:32;8.90;99.90
60909;DHT22;46780;48.128;-1.704;2023-01-15T01:09:59;8.90;99.90
60909;DHT22;46780;48.128;-1.704;2023-01-15T01:12:25;8.90;99.90
60909;DHT22;46780;48.128;-1.704;2023-01-15T01:14:52;8.90;99.90
60909;DHT22;46780;48.128;-1.704;2023-01-15T01:17:18;8.90;99.90
60909;DHT22;46780;48.128;-1.704;2023-01-15T01:19:45;9.00;99.90
60909;DHT22;46780;48.128;-1.704;2023-01-15T01:22:13;9.00;99.90
60909;DHT22;46780;48.128;-1.704;2023-01-15T01:24:39;9.00;99.90
60909;DHT22;46780;48.128;-1.704;2023-01-15T01:27:06;9.00;99.90
60909;DHT22;46780;48.128;-1.704;2023-01-15T01:29:32;9.00;99.90
60909;DHT22;46780;48.128;-1.704;2023-01-15T01:31:58;8.90;99.90
60909;DHT22;46780;48.128;-1.704;2023-01-15T01:34:25;9.00;99.90
60909;DHT22;46780;48.128;-1.704;2023-01-15T01:36:51;8.90;99.90
60909;DHT22;46780;48.128;-1.704;2023-01-15T01:39:19;8.90;99.90
60909;DHT22;46780;48.128;-1.704;2023-01-15T01:41:46;8.90;99.90
60909;DHT22;46780;48.128;-1.704;2023-01-15T01:47:19;8.80;99.90
60909;DHT22;46780;48.128;-1.704;2023-01-15T01:49:47;8.80;99.90
60909;DHT22;46780;48.128;-1.704;2023-01-15T01:52:18;8.80;99.90
60909;DHT22;46780;48.128;-1.704;2023-01-15T01:54:48;8.80;99.90
60909;DHT22;46780;48.128;-1.704;2023-01-15T01:57:15;8.80;99.90
60909;DHT22;46780;48.128;-1.704;2023-01-15T01:59:43;8.80;99.90
60909;DHT22;46780;48.128;-1.704;2023-01-15T02:02:10;8.70;99.90
60909;DHT22;46780;48.128;-1.704;2023-01-15T02:04:37;8.60;99.90
60909;DHT22;46780;48.128;-1.704;2023-01-15T02:07:05;8.60;99.90
60909;DHT22;46780;48.128;-1.704;2023-01-15T02:09:32;8.60;99.90
60909;DHT22;46780;48.128;-1.704;2023-01-15T02:12:07;8.60;99.70
60909;DHT22;46780;48.128;-1.704;2023-01-15T02:14:40;8.60;99.40
60909;DHT22;46780;48.128;-1.704;2023-01-15T02:17:15;8.60;99.20
60909;DHT22;46780;48.128;-1.704;2023-01-15T02:19:48;8.60;99.20
60909;DHT22;46780;48.128;-1.704;2023-01-15T02:22:28;8.50;98.80
60909;DHT22;46780;48.128;-1.704;2023-01-15T02:25:06;8.50;99.30
60909;DHT22;46780;48.128;-1.704;2023-01-15T02:27:41;8.50;99.60
60909;DHT22;46780;48.128;-1.704;2023-01-15T02:30:14;8.50;99.50
60909;DHT22;46780;48.128;-1.704;2023-01-15T02:32:46;8.40;99.40
60909;DHT22;46780;48.128;-1.704;2023-01-15T02:35:17;8.40;99.70
60909;DHT22;46780;48.128;-1.704;2023-01-15T02:37:48;8.40;99.90
60909;DHT22;46780;48.128;-1.704;2023-01-15T02:40:17;8.40;99.90
60909;DHT22;46780;48.128;-1.704;2023-01-15T02:42:46;8.40;99.90
60909;DHT22;46780;48.128;-1.704;2023-01-15T02:45:15;8.40;99.90
60909;DHT22;46780;48.128;-1.704;2023-01-15T02:47:44;8.40;99.90
60909;DHT22;46780;48.128;-1.704;2023-01-15T02:50:14;8.40;99.90
60909;DHT22;46780;48.128;-1.704;2023-01-15T02:52:43;8.40;99.90
60909;DHT22;46780;48.128;-1.704;2023-01-15T02:55:15;8.40;99.90
60909;DHT22;46780;48.128;-1.704;2023-01-15T02:57:46;8.40;99.90
60909;DHT22;46780;48.128;-1.704;2023-01-15T03:00:16;8.40;99.90
60909;DHT22;46780;48.128;-1.704;2023-01-15T03:02:46;8.30;99.90
60909;DHT22;46780;48.128;-1.704;2023-01-15T03:05:16;8.30;99.90
60909;DHT22;46780;48.128;-1.704;2023-01-15T03:07:47;8.30;99.90
60909;DHT22;46780;48.128;-1.704;2023-01-15T03:10:16;8.30;99.90
60909;DHT22;46780;48.128;-1.704;2023-01-15T03:12:48;8.30;99.90
60909;DHT22;46780;48.128;-1.704;2023-01-15T03:15:18;8.30;99.90
60909;DHT22;46780;48.128;-1.704;2023-01-15T03:17:48;8.30;99.90
60909;DHT22;46780;48.128;-1.704;2023-01-15T03:20:22;8.30;99.90
60909;DHT22;46780;48.128;-1.704;2023-01-15T03:22:50;8.30;99.90
60909;DHT22;46780;48.128;-1.704;2023-01-15T03:25:20;8.40;99.90
60909;DHT22;46780;48.128;-1.704;2023-01-15T03:27:53;8.40;99.90
60909;DHT22;46780;48.128;-1.704;2023-01-15T03:30:22;8.40;99.90
60909;DHT22;46780;48.128;-1.704;2023-01-15T03:32:49;8.50;99.90
60909;DHT22;46780;48.128;-1.704;2023-01-15T03:35:45;8.50;99.90
60909;DHT22;46780;48.128;-1.704;2023-01-15T03:38:13;8.40;99.00
60909;DHT22;46780;48.128;-1.704;2023-01-15T03:40:47;8.30;98.70
60909;DHT22;46780;48.128;-1.704;2023-01-15T03:43:20;8.30;98.60
60909;DHT22;46780;48.128;-1.704;2023-01-15T03:45:49;8.20;98.30
60909;DHT22;46780;48.128;-1.704;2023-01-15T03:48:20;8.20;98.30
60909;DHT22;46780;48.128;-1.704;2023-01-15T03:50:49;8.20;98.70
60909;DHT22;46780;48.128;-1.704;2023-01-15T03:53:20;8.10;98.60
60909;DHT22;46780;48.128;-1.704;2023-01-15T03:55:52;8.10;98.60
60909;DHT22;46780;48.128;-1.704;2023-01-15T03:58:24;8.10;99.00
60909;DHT22;46780;48.128;-1.704;2023-01-15T04:00:54;8.00;99.60
60909;DHT22;46780;48.128;-1.704;2023-01-15T04:03:26;8.00;99.90
60909;DHT22;46780;48.128;-1.704;2023-01-15T04:05:54;8.00;99.90
60909;DHT22;46780;48.128;-1.704;2023-01-15T04:08:23;8.00;99.90
60909;DHT22;46780;48.128;-1.704;2023-01-15T04:10:52;8.00;99.90
60909;DHT22;46780;48.128;-1.704;2023-01-15T04:13:22;8.00;99.40
60909;DHT22;46780;48.128;-1.704;2023-01-15T04:15:51;8.00;98.70
60909;DHT22;46780;48.128;-1.704;2023-01-15T04:18:19;7.90;98.70
60909;DHT22;46780;48.128;-1.704;2023-01-15T04:20:47;7.90;98.30
60909;DHT22;46780;48.128;-1.704;2023-01-15T04:23:16;7.90;96.80
60909;DHT22;46780;48.128;-1.704;2023-01-15T04:25:44;7.90;96.60
60909;DHT22;46780;48.128;-1.704;2023-01-15T04:28:11;7.90;96.20
60909;DHT22;46780;48.128;-1.704;2023-01-15T04:30:41;7.90;95.20
60909;DHT22;46780;48.128;-1.704;2023-01-15T04:33:08;7.90;94.90
60909;DHT22;46780;48.128;-1.704;2023-01-15T04:35:37;7.80;94.50
60909;DHT22;46780;48.128;-1.704;2023-01-15T04:38:04;7.80;94.20
60909;DHT22;46780;48.128;-1.704;2023-01-15T04:40:31;7.80;94.30
60909;DHT22;46780;48.128;-1.704;2023-01-15T04:42:58;7.70;94.40
60909;DHT22;46780;48.128;-1.704;2023-01-15T04:45:24;7.70;94.50
60909;DHT22;46780;48.128;-1.704;2023-01-15T04:47:52;7.70;94.70
60909;DHT22;46780;48.128;-1.704;2023-01-15T04:50:19;7.60;94.80
60909;DHT22;46780;48.128;-1.704;2023-01-15T04:52:46;7.60;95.10
60909;DHT22;46780;48.128;-1.704;2023-01-15T04:55:12;7.50;95.20
60909;DHT22;46780;48.128;-1.704;2023-01-15T04:57:39;7.50;95.50
60909;DHT22;46780;48.128;-1.704;2023-01-15T05:00:07;7.50;95.90
60909;DHT22;46780;48.128;-1.704;2023-01-15T05:02:34;7.40;96.00
60909;DHT22;46780;48.128;-1.704;2023-01-15T05:05:02;7.40;96.40
60909;DHT22;46780;48.128;-1.704;2023-01-15T05:07:28;7.40;96.50
60909;DHT22;46780;48.128;-1.704;2023-01-15T05:09:55;7.30;96.50
60909;DHT22;46780;48.128;-1.704;2023-01-15T05:12:21;7.30;96.50
60909;DHT22;46780;48.128;-1.704;2023-01-15T05:14:48;7.30;96.70
60909;DHT22;46780;48.128;-1.704;2023-01-15T05:17:15;7.30;96.90
60909;DHT22;46780;48.128;-1.704;2023-01-15T05:19:41;7.30;97.10
60909;DHT22;46780;48.128;-1.704;2023-01-15T05:22:09;7.20;97.40
60909;DHT22;46780;48.128;-1.704;2023-01-15T05:24:36;7.20;97.50
60909;DHT22;46780;48.128;-1.704;2023-01-15T05:27:02;7.20;97.80
60909;DHT22;46780;48.128;-1.704;2023-01-15T05:29:29;7.20;98.20
60909;DHT22;46780;48.128;-1.704;2023-01-15T05:31:55;7.20;98.30
60909;DHT22;46780;48.128;-1.704;2023-01-15T05:34:22;7.10;98.40
60909;DHT22;46780;48.128;-1.704;2023-01-15T05:36:48;7.10;98.60
60909;DHT22;46780;48.128;-1.704;2023-01-15T05:39:16;7.10;99.20
60909;DHT22;46780;48.128;-1.704;2023-01-15T05:41:43;7.10;98.80
60909;DHT22;46780;48.128;-1.704;2023-01-15T05:44:11;7.10;99.00
60909;DHT22;46780;48.128;-1.704;2023-01-15T05:46:39;7.00;99.20
60909;DHT22;46780;48.128;-1.704;2023-01-15T05:49:07;7.00;99.10
60909;DHT22;46780;48.128;-1.704;2023-01-15T05:51:35;7.00;99.10
60909;DHT22;46780;48.128;-1.704;2023-01-15T05:54:02;7.10;98.80
60909;DHT22;46780;48.128;-1.704;2023-01-15T05:56:30;7.00;98.90
60909;DHT22;46780;48.128;-1.704;2023-01-15T05:58:57;7.00;98.80
60909;DHT22;46780;48.128;-1.704;2023-01-15T06:01:23;7.00;98.80
60909;DHT22;46780;48.128;-1.704;2023-01-15T06:03:50;7.00;98.70
60909;DHT22;46780;48.128;-1.704;2023-01-15T06:06:17;7.00;98.60
60909;DHT22;46780;48.128;-1.704;2023-01-15T06:08:44;7.00;98.30
60909;DHT22;46780;48.128;-1.704;2023-01-15T06:11:11;7.00;98.00
60909;DHT22;46780;48.128;-1.704;2023-01-15T06:13:39;7.00;97.90
60909;DHT22;46780;48.128;-1.704;2023-01-15T06:16:06;6.90;97.90
60909;DHT22;46780;48.128;-1.704;2023-01-15T06:18:33;7.00;97.70
60909;DHT22;46780;48.128;-1.704;2023-01-15T06:21:02;7.00;97.50
60909;DHT22;46780;48.128;-1.704;2023-01-15T06:23:29;7.00;97.50
60909;DHT22;46780;48.128;-1.704;2023-01-15T06:25:58;7.00;97.50
60909;DHT22;46780;48.128;-1.704;2023-01-15T06:28:25;6.90;97.30
60909;DHT22;46780;48.128;-1.704;2023-01-15T06:30:53;6.90;97.10
60909;DHT22;46780;48.128;-1.704;2023-01-15T06:33:20;7.00;96.90
60909;DHT22;46780;48.128;-1.704;2023-01-15T06:35:46;7.00;96.60
60909;DHT22;46780;48.128;-1.704;2023-01-15T06:38:13;7.00;97.00
60909;DHT22;46780;48.128;-1.704;2023-01-15T06:40:39;7.00;96.60
60909;DHT22;46780;48.128;-1.704;2023-01-15T06:43:07;7.00;96.50
60909;DHT22;46780;48.128;-1.704;2023-01-15T06:45:37;7.00;96.30
60909;DHT22;46780;48.128;-1.704;2023-01-15T06:48:06;7.00;96.50
60909;DHT22;46780;48.128;-1.704;2023-01-15T06:50:33;7.00;96.30
60909;DHT22;46780;48.128;-1.704;2023-01-15T06:52:59;7.00;96.40
60909;DHT22;46780;48.128;-1.704;2023-01-15T06:55:26;6.90;96.50
60909;DHT22;46780;48.128;-1.704;2023-01-15T06:57:52;6.90;96.60
60909;DHT22;46780;48.128;-1.704;2023-01-15T07:00:19;7.00;96.30
60909;DHT22;46780;48.128;-1.704;2023-01-15T07:02:46;6.90;96.40
60909;DHT22;46780;48.128;-1.704;2023-01-15T07:05:13;6.90;96.60
60909;DHT22;46780;48.128;-1.704;2023-01-15T07:07:40;6.90;96.70
60909;DHT22;46780;48.128;-1.704;2023-01-15T07:10:08;6.90;96.60
60909;DHT22;46780;48.128;-1.704;2023-01-15T07:12:34;6.90;96.60
60909;DHT22;46780;48.128;-1.704;2023-01-15T07:15:01;6.90;96.40
60909;DHT22;46780;48.128;-1.704;2023-01-15T07:17:27;6.90;96.40
60909;DHT22;46780;48.128;-1.704;2023-01-15T07:19:54;6.90;96.80
60909;DHT22;46780;48.128;-1.704;2023-01-15T07:22:22;6.90;96.80
60909;DHT22;46780;48.128;-1.704;2023-01-15T07:24:48;6.90;96.90
60909;DHT22;46780;48.128;-1.704;2023-01-15T07:27:15;6.90;96.70
60909;DHT22;46780;48.128;-1.704;2023-01-15T07:29:41;6.90;96.90
60909;DHT22;46780;48.128;-1.704;2023-01-15T07:32:09;6.80;96.70
60909;DHT22;46780;48.128;-1.704;2023-01-15T07:34:35;6.90;96.90
60909;DHT22;46780;48.128;-1.704;2023-01-15T07:37:02;6.80;97.20
60909;DHT22;46780;48.128;-1.704;2023-01-15T07:39:30;6.80;97.30
60909;DHT22;46780;48.128;-1.704;2023-01-15T07:41:56;6.90;97.20
60909;DHT22;46780;48.128;-1.704;2023-01-15T07:44:23;6.90;97.50
60909;DHT22;46780;48.128;-1.704;2023-01-15T07:46:49;6.80;97.70
60909;DHT22;46780;48.128;-1.704;2023-01-15T07:49:16;6.80;97.90
60909;DHT22;46780;48.128;-1.704;2023-01-15T07:51:42;6.90;97.90
60909;DHT22;46780;48.128;-1.704;2023-01-15T07:54:09;6.90;98.00
60909;DHT22;46780;48.128;-1.704;2023-01-15T07:56:37;6.90;98.00
60909;DHT22;46780;48.128;-1.704;2023-01-15T07:59:03;6.90;97.80
60909;DHT22;46780;48.128;-1.704;2023-01-15T08:01:30;6.90;98.00
60909;DHT22;46780;48.128;-1.704;2023-01-15T08:03:56;6.90;98.10
60909;DHT22;46780;48.128;-1.704;2023-01-15T08:06:23;7.00;98.20
60909;DHT22;46780;48.128;-1.704;2023-01-15T08:08:49;7.00;98.00
60909;DHT22;46780;48.128;-1.704;2023-01-15T08:11:16;7.10;98.30
60909;DHT22;46780;48.128;-1.704;2023-01-15T08:13:44;7.10;98.10
60909;DHT22;46780;48.128;-1.704;2023-01-15T08:16:10;7.30;98.20
60909;DHT22;46780;48.128;-1.704;2023-01-15T08:18:37;7.30;97.60
60909;DHT22;46780;48.128;-1.704;2023-01-15T08:21:04;7.50;97.10
60909;DHT22;46780;48.128;-1.704;2023-01-15T08:23:30;7.50;97.20
60909;DHT22;46780;48.128;-1.704;2023-01-15T08:25:58;7.60;97.20
60909;DHT22;46780;48.128;-1.704;2023-01-15T08:28:24;7.70;96.90
60909;DHT22;46780;48.128;-1.704;2023-01-15T08:30:52;7.80;96.60
60909;DHT22;46780;48.128;-1.704;2023-01-15T08:33:19;8.00;96.50
60909;DHT22;46780;48.128;-1.704;2023-01-15T08:35:45;8.20;95.70
60909;DHT22;46780;48.128;-1.704;2023-01-15T08:38:12;8.40;95.30
60909;DHT22;46780;48.128;-1.704;2023-01-15T08:40:38;8.40;94.20
60909;DHT22;46780;48.128;-1.704;2023-01-15T08:43:05;8.50;94.00
60909;DHT22;46780;48.128;-1.704;2023-01-15T08:45:31;8.70;94.10
60909;DHT22;46780;48.128;-1.704;2023-01-15T08:47:59;8.80;93.70
60909;DHT22;46780;48.128;-1.704;2023-01-15T08:50:26;9.00;93.10
60909;DHT22;46780;48.128;-1.704;2023-01-15T08:52:52;9.10;92.90
60909;DHT22;46780;48.128;-1.704;2023-01-15T08:55:19;9.20;92.40
60909;DHT22;46780;48.128;-1.704;2023-01-15T08:57:45;9.20;92.00
60909;DHT22;46780;48.128;-1.704;2023-01-15T09:00:12;9.20;92.10
60909;DHT22;46780;48.128;-1.704;2023-01-15T09:02:39;9.30;91.70
60909;DHT22;46780;48.128;-1.704;2023-01-15T09:05:07;9.40;91.80
60909;DHT22;46780;48.128;-1.704;2023-01-15T09:07:34;9.50;91.70
60909;DHT22;46780;48.128;-1.704;2023-01-15T09:10:00;9.60;91.70
60909;DHT22;46780;48.128;-1.704;2023-01-15T09:12:27;9.80;91.00
60909;DHT22;46780;48.128;-1.704;2023-01-15T09:14:53;10.00;90.60
60909;DHT22;46780;48.128;-1.704;2023-01-15T09:17:20;10.10;88.70
60909;DHT22;46780;48.128;-1.704;2023-01-15T09:19:46;10.10;88.10
60909;DHT22;46780;48.128;-1.704;2023-01-15T09:22:14;10.30;88.50
60909;DHT22;46780;48.128;-1.704;2023-01-15T09:24:41;10.30;85.70
60909;DHT22;46780;48.128;-1.704;2023-01-15T09:27:09;10.40;86.50
60909;DHT22;46780;48.128;-1.704;2023-01-15T09:29:36;10.60;84.90
60909;DHT22;46780;48.128;-1.704;2023-01-15T09:32:02;10.70;83.50
60909;DHT22;46780;48.128;-1.704;2023-01-15T09:34:29;10.80;81.60
60909;DHT22;46780;48.128;-1.704;2023-01-15T09:36:55;10.90;81.00
60909;DHT22;46780;48.128;-1.704;2023-01-15T09:39:23;11.00;81.30
60909;DHT22;46780;48.128;-1.704;2023-01-15T09:42:02;11.10;79.70
60909;DHT22;46780;48.128;-1.704;2023-01-15T09:44:38;11.20;79.40
60909;DHT22;46780;48.128;-1.704;2023-01-15T09:47:12;11.30;78.20
60909;DHT22;46780;48.128;-1.704;2023-01-15T09:50:09;11.30;77.70
60909;DHT22;46780;48.128;-1.704;2023-01-15T09:53:03;11.30;76.30
60909;DHT22;46780;48.128;-1.704;2023-01-15T09:55:34;11.30;79.00
60909;DHT22;46780;48.128;-1.704;2023-01-15T09:58:04;11.50;78.00
60909;DHT22;46780;48.128;-1.704;2023-01-15T10:00:37;11.60;79.00
60909;DHT22;46780;48.128;-1.704;2023-01-15T10:03:06;11.70;77.00
60909;DHT22;46780;48.128;-1.704;2023-01-15T10:05:42;11.70;77.70
60909;DHT22;46780;48.128;-1.704;2023-01-15T10:08:13;11.60;79.00
60909;DHT22;46780;48.128;-1.704;2023-01-15T10:10:45;11.60;79.30
60909;DHT22;46780;48.128;-1.704;2023-01-15T10:13:13;11.40;79.60
60909;DHT22;46780;48.128;-1.704;2023-01-15T10:15:44;11.10;81.10
60909;DHT22;46780;48.128;-1.704;2023-01-15T10:18:15;11.00;82.90
60909;DHT22;46780;48.128;-1.704;2023-01-15T10:21:01;11.00;82.30
60909;DHT22;46780;48.128;-1.704;2023-01-15T10:23:35;11.10;83.30
60909;DHT22;46780;48.128;-1.704;2023-01-15T10:26:11;11.30;82.10
60909;DHT22;46780;48.128;-1.704;2023-01-15T10:28:57;11.20;81.20
60909;DHT22;46780;48.128;-1.704;2023-01-15T10:31:38;11.20;82.30
60909;DHT22;46780;48.128;-1.704;2023-01-15T10:37:05;11.10;82.70
60909;DHT22;46780;48.128;-1.704;2023-01-15T10:39:36;11.20;83.20
60909;DHT22;46780;48.128;-1.704;2023-01-15T10:42:13;11.20;83.10
60909;DHT22;46780;48.128;-1.704;2023-01-15T10:44:49;11.30;82.20
60909;DHT22;46780;48.128;-1.704;2023-01-15T10:47:24;11.30;82.50
60909;DHT22;46780;48.128;-1.704;2023-01-15T10:49:52;11.40;83.50
60909;DHT22;46780;48.128;-1.704;2023-01-15T10:52:24;11.50;83.50
60909;DHT22;46780;48.128;-1.704;2023-01-15T10:54:55;11.40;83.10
60909;DHT22;46780;48.128;-1.704;2023-01-15T10:57:38;11.20;85.00
60909;DHT22;46780;48.128;-1.704;2023-01-15T11:00:09;11.10;86.90
60909;DHT22;46780;48.128;-1.704;2023-01-15T11:02:38;10.90;88.40
60909;DHT22;46780;48.128;-1.704;2023-01-15T11:05:10;10.90;90.00
60909;DHT22;46780;48.128;-1.704;2023-01-15T11:07:40;11.10;90.00
60909;DHT22;46780;48.128;-1.704;2023-01-15T11:10:11;11.30;87.80
60909;DHT22;46780;48.128;-1.704;2023-01-15T11:12:39;11.50;85.20
60909;DHT22;46780;48.128;-1.704;2023-01-15T11:15:21;11.50;84.60
60909;DHT22;46780;48.128;-1.704;2023-01-15T11:17:48;11.70;85.00
60909;DHT22;46780;48.128;-1.704;2023-01-15T11:20:26;11.80;82.30
60909;DHT22;46780;48.128;-1.704;2023-01-15T11:22:55;11.90;80.00
60909;DHT22;46780;48.128;-1.704;2023-01-15T11:25:27;12.00;78.60
60909;DHT22;46780;48.128;-1.704;2023-01-15T11:27:57;12.00;77.70
60909;DHT22;46780;48.128;-1.704;2023-01-15T11:30:27;12.00;77.10
60909;DHT22;46780;48.128;-1.704;2023-01-15T11:32:56;12.00;78.20
60909;DHT22;46780;48.128;-1.704;2023-01-15T11:35:48;12.00;76.90
60909;DHT22;46780;48.128;-1.704;2023-01-15T11:38:25;12.20;74.20
60909;DHT22;46780;48.128;-1.704;2023-01-15T11:40:52;12.20;73.10
60909;DHT22;46780;48.128;-1.704;2023-01-15T11:43:23;12.20;74.30
60909;DHT22;46780;48.128;-1.704;2023-01-15T11:45:51;12.30;74.10
60909;DHT22;46780;48.128;-1.704;2023-01-15T11:48:19;12.50;72.50
60909;DHT22;46780;48.128;-1.704;2023-01-15T11:50:51;12.50;71.80
60909;DHT22;46780;48.128;-1.704;2023-01-15T11:53:20;12.70;71.60
60909;DHT22;46780;48.128;-1.704;2023-01-15T11:55:57;12.90;68.60
60909;DHT22;46780;48.128;-1.704;2023-01-15T11:58:27;13.10;68.50
60909;DHT22;46780;48.128;-1.704;2023-01-15T12:00:54;13.10;67.50
60909;DHT22;46780;48.128;-1.704;2023-01-15T12:03:24;12.80;66.00
60909;DHT22;46780;48.128;-1.704;2023-01-15T12:05:57;12.50;68.60
60909;DHT22;46780;48.128;-1.704;2023-01-15T12:08:41;12.30;70.30
60909;DHT22;46780;48.128;-1.704;2023-01-15T12:11:16;12.00;69.50
60909;DHT22;46780;48.128;-1.704;2023-01-15T12:13:51;11.90;71.50
60909;DHT22;46780;48.128;-1.704;2023-01-15T12:16:26;11.90;72.30
60909;DHT22;46780;48.128;-1.704;2023-01-15T12:18:57;12.00;72.70
60909;DHT22;46780;48.128;-1.704;2023-01-15T12:21:52;12.10;73.30
60909;DHT22;46780;48.128;-1.704;2023-01-15T12:27:34;11.80;70.40
60909;DHT22;46780;48.128;-1.704;2023-01-15T12:30:13;11.80;70.60
60909;DHT22;46780;48.128;-1.704;2023-01-15T12:32:49;12.00;70.40
60909;DHT22;46780;48.128;-1.704;2023-01-15T12:35:31;12.20;69.10
60909;DHT22;46780;48.128;-1.704;2023-01-15T12:38:02;12.20;69.70
60909;DHT22;46780;48.128;-1.704;2023-01-15T12:40:40;12.40;69.00
60909;DHT22;46780;48.128;-1.704;2023-01-15T12:43:14;12.40;68.40
60909;DHT22;46780;48.128;-1.704;2023-01-15T12:45:45;12.40;67.50
60909;DHT22;46780;48.128;-1.704;2023-01-15T12:48:17;12.40;67.80
60909;DHT22;46780;48.128;-1.704;2023-01-15T12:50:46;12.50;66.80
60909;DHT22;46780;48.128;-1.704;2023-01-15T12:53:15;12.40;68.20
60909;DHT22;46780;48.128;-1.704;2023-01-15T12:55:49;12.50;69.30
60909;DHT22;46780;48.128;-1.704;2023-01-15T12:58:27;12.80;69.00
60909;DHT22;46780;48.128;-1.704;2023-01-15T13:01:03;13.00;66.30
60909;DHT22;46780;48.128;-1.704;2023-01-15T13:03:38;13.10;65.80
60909;DHT22;46780;48.128;-1.704;2023-01-15T13:06:09;13.00;64.50
60909;DHT22;46780;48.128;-1.704;2023-01-15T13:08:41;13.10;64.40
60909;DHT22;46780;48.128;-1.704;2023-01-15T13:11:11;13.00;64.20
60909;DHT22;46780;48.128;-1.704;2023-01-15T13:13:40;13.00;63.20
60909;DHT22;46780;48.128;-1.704;2023-01-15T13:16:14;13.00;63.00
60909;DHT22;46780;48.128;-1.704;2023-01-15T13:18:52;13.10;64.40
60909;DHT22;46780;48.128;-1.704;2023-01-15T13:21:21;12.90;63.70
60909;DHT22;46780;48.128;-1.704;2023-01-15T13:24:10;12.80;65.00
60909;DHT22;46780;48.128;-1.704;2023-01-15T13:26:57;12.60;66.00
60909;DHT22;46780;48.128;-1.704;2023-01-15T13:29:36;12.50;67.70
60909;DHT22;46780;48.128;-1.704;2023-01-15T13:32:12;12.70;68.30
60909;DHT22;46780;48.128;-1.704;2023-01-15T13:34:44;12.70;68.10
60909;DHT22;46780;48.128;-1.704;2023-01-15T13:37:22;12.80;67.60
60909;DHT22;46780;48.128;-1.704;2023-01-15T13:39:54;12.80;66.70
60909;DHT22;46780;48.128;-1.704;2023-01-15T13:42:23;12.70;66.50
60909;DHT22;46780;48.128;-1.704;2023-01-15T13:44:52;12.70;67.80
60909;DHT22;46780;48.128;-1.704;2023-01-15T13:47:23;12.80;68.50
60909;DHT22;46780;48.128;-1.704;2023-01-15T13:49:53;12.90;67.10
60909;DHT22;46780;48.128;-1.704;2023-01-15T13:52:23;13.00;65.20
60909;DHT22;46780;48.128;-1.704;2023-01-15T13:54:51;13.10;64.70
60909;DHT22;46780;48.128;-1.704;2023-01-15T13:57:23;13.00;62.70
60909;DHT22;46780;48.128;-1.704;2023-01-15T13:59:51;12.90;63.10
60909;DHT22;46780;48.128;-1.704;2023-01-15T14:02:30;12.70;64.00
60909;DHT22;46780;48.128;-1.704;2023-01-15T14:04:57;12.50;64.10
60909;DHT22;46780;48.128;-1.704;2023-01-15T14:07:33;12.30;65.90
60909;DHT22;46780;48.128;-1.704;2023-01-15T14:13:20;11.90;66.60
60909;DHT22;46780;48.128;-1.704;2023-01-15T14:15:59;11.70;67.00
60909;DHT22;46780;48.128;-1.704;2023-01-15T14:21:46;11.60;71.10
60909;DHT22;46780;48.128;-1.704;2023-01-15T14:24:51;11.70;71.00
60909;DHT22;46780;48.128;-1.704;2023-01-15T14:27:39;11.60;70.50
60909;DHT22;46780;48.128;-1.704;2023-01-15T14:30:35;11.50;71.90
60909;DHT22;46780;48.128;-1.704;2023-01-15T14:33:14;11.40;73.50
60909;DHT22;46780;48.128;-1.704;2023-01-15T14:35:46;11.30;74.20
60909;DHT22;46780;48.128;-1.704;2023-01-15T14:38:17;11.10;75.50
60909;DHT22;46780;48.128;-1.704;2023-01-15T14:40:54;11.10;77.10
60909;DHT22;46780;48.128;-1.704;2023-01-15T14:43:23;11.00;78.00
60909;DHT22;46780;48.128;-1.704;2023-01-15T14:46:10;10.90;79.10
60909;DHT22;46780;48.128;-1.704;2023-01-15T14:48:44;10.90;81.40
60909;DHT22;46780;48.128;-1.704;2023-01-15T14:51:13;10.90;81.00
60909;DHT22;46780;48.128;-1.704;2023-01-15T14:53:43;10.80;81.70
60909;DHT22;46780;48.128;-1.704;2023-01-15T14:56:18;10.80;82.50
60909;DHT22;46780;48.128;-1.704;2023-01-15T15:02:00;10.70;82.80
60909;DHT22;46780;48.128;-1.704;2023-01-15T15:04:34;10.60;83.90
60909;DHT22;46780;48.128;-1.704;2023-01-15T15:07:09;10.60;85.20
60909;DHT22;46780;48.128;-1.704;2023-01-15T15:09:41;10.60;85.60
60909;DHT22;46780;48.128;-1.704;2023-01-15T15:12:34;10.60;86.90
60909;DHT22;46780;48.128;-1.704;2023-01-15T15:15:10;10.60;89.00
60909;DHT22;46780;48.128;-1.704;2023-01-15T15:17:43;10.70;90.20
60909;DHT22;46780;48.128;-1.704;2023-01-15T15:20:29;10.60;89.50
60909;DHT22;46780;48.128;-1.704;2023-01-15T15:23:05;10.50;90.00
60909;DHT22;46780;48.128;-1.704;2023-01-15T15:25:51;10.40;90.10
60909;DHT22;46780;48.128;-1.704;2023-01-15T15:28:20;10.40;90.30
60909;DHT22;46780;48.128;-1.704;2023-01-15T15:31:00;10.40;90.70
60909;DHT22;46780;48.128;-1.704;2023-01-15T15:33:36;10.40;91.10
60909;DHT22;46780;48.128;-1.704;2023-01-15T15:36:05;10.50;91.10
60909;DHT22;46780;48.128;-1.704;2023-01-15T15:38:32;10.50;91.10
60909;DHT22;46780;48.128;-1.704;2023-01-15T15:41:05;10.50;91.30
60909;DHT22;46780;48.128;-1.704;2023-01-15T15:43:40;10.60;90.90
60909;DHT22;46780;48.128;-1.704;2023-01-15T15:46:25;10.60;91.40
60909;DHT22;46780;48.128;-1.704;2023-01-15T15:48:56;10.60;91.60
60909;DHT22;46780;48.128;-1.704;2023-01-15T15:51:27;10.50;92.00
60909;DHT22;46780;48.128;-1.704;2023-01-15T15:54:09;10.50;92.40
60909;DHT22;46780;48.128;-1.704;2023-01-15T15:56:40;10.40;93.10
60909;DHT22;46780;48.128;-1.704;2023-01-15T15:59:15;10.40;93.60
60909;DHT22;46780;48.128;-1.704;2023-01-15T16:01:45;10.40;94.20
60909;DHT22;46780;48.128;-1.704;2023-01-15T16:04:17;10.20;94.50